Latest Weather Observations for Rowley Shoals

IDW60801

Issued at 4:05 pm WST Friday 18 April 2014 (issued every 30 minutes, with the page automatically refreshed every 10 minutes)

About weather observations | Map of weather stations | Latest weather observations for WA | Other Formats
Station Details ID: 200713 Name: ROWLEY SHOALS Lat: -17.52 Lon: 118.95 Height: 0.0 m
Data from the previous 72 hours. | See also: Recent months for locations in Western Australia
Date/Time
WST
Temp
°C
App
Temp
°C
Dew
Point
Rel
Hum
%
Delta-T
°C
Wind Press
QNH
hPa
Press
MSL
hPa
Rain
since 9 am
mm
Dir
 
Spd
km/h
Gust
km/h
Spd
kts
Gust
kts
18/04:00pm - - - - - SE 24 28 13 15 1010.4 - -
18/03:30pm - - - - - SE 24 30 13 16 1010.4 - -
18/03:00pm - - - - - SE 26 28 14 15 1010.5 1010.3 -
18/02:30pm - - - - - SSE 26 30 14 16 1010.6 - -
18/02:00pm - - - - - SSE 26 28 14 15 1010.7 1010.6 -
18/01:30pm - - - - - SSE 24 28 13 15 1010.8 - -
18/01:00pm - - - - - SSE 24 28 13 15 1011.1 1010.9 -
18/12:30pm - - - - - SSE 26 28 14 15 1011.6 - -
18/12:00pm - - - - - SSE 24 28 13 15 1011.8 1011.6 -
18/11:30am - - - - - SSE 24 28 13 15 1012.2 - -
18/11:00am - - - - - SSE 26 32 14 17 1012.4 1012.2 -
18/10:30am - - - - - SSE 26 30 14 16 1012.6 - -
18/10:00am - - - - - SSE 28 32 15 17 1012.7 1012.6 -
18/09:30am - - - - - SSE 26 28 14 15 1012.9 - -
18/09:00am - - - - - SSE 26 32 14 17 1012.8 1012.7 -
18/08:30am - - - - - SSE 26 30 14 16 1012.7 - -
18/08:00am - - - - - SSE 26 28 14 15 1012.8 1012.7 -
18/07:30am - - - - - SE 24 26 13 14 1012.7 - -
18/07:00am - - - - - SE 26 28 14 15 1012.6 1012.6 -
18/06:30am - - - - - SSE 24 30 13 16 1012.4 - -
18/06:00am - - - - - SE 22 24 12 13 1012.2 1012.2 -
18/05:30am - - - - - SE 20 24 11 13 1012.1 - -
18/05:00am - - - - - SE 20 20 11 11 1012.1 1012.0 -
18/04:30am - - - - - ESE 13 15 7 8 1011.9 - -
18/04:00am - - - - - ESE 13 15 7 8 1011.8 1011.7 -
18/03:30am - - - - - E 13 15 7 8 1012.1 - -
18/03:00am - - - - - E 15 19 8 10 1012.1 1012.0 -
18/02:30am - - - - - E 13 15 7 8 1012.1 - -
18/02:00am - - - - - E 15 17 8 9 1012.0 1011.9 -
18/01:30am - - - - - E 13 15 7 8 1012.1 - -
18/01:00am - - - - - E 11 15 6 8 1012.2 1012.0 -
18/12:30am - - - - - E 11 13 6 7 1012.4 - -
18/12:00am - - - - - ENE 15 19 8 10 1012.6 1012.4 -
 
Date/Time
WST
Temp
°C
App
Temp
°C
Dew
Point
Rel
Hum
%
Delta-T
°C
Wind Press
QNH
hPa
Press
MSL
hPa
Rain
since 9 am
mm
Dir
 
Spd
km/h
Gust
km/h
Spd
kts
Gust
kts
17/11:30pm - - - - - ENE 19 20 10 11 1012.8 - -
17/11:00pm - - - - - ENE 17 20 9 11 1012.8 1012.7 -
17/10:30pm - - - - - ENE 15 19 8 10 1012.9 - -
17/10:00pm - - - - - ENE 17 20 9 11 1013.0 1012.9 -
17/09:30pm - - - - - E 22 26 12 14 1013.1 - -
17/09:00pm - - - - - E 22 28 12 15 1013.1 1013.0 -
17/08:30pm - - - - - E 24 28 13 15 1012.9 - -
17/08:00pm - - - - - E 24 28 13 15 1012.7 1012.8 -
17/07:30pm - - - - - E 26 30 14 16 1012.3 - -
17/07:00pm - - - - - E 26 30 14 16 1011.9 1011.9 -
17/06:30pm - - - - - E 26 32 14 17 1011.7 - -
17/06:00pm - - - - - E 26 32 14 17 1011.5 1011.5 -
17/05:30pm - - - - - ESE 30 33 16 18 1011.0 - -
17/05:00pm - - - - - ESE 28 30 15 16 1010.8 1010.7 -
17/04:30pm - - - - - ESE 28 35 15 19 1010.5 - -
17/04:00pm - - - - - ESE 30 33 16 18 1010.4 1010.3 -
17/03:30pm - - - - - ESE 28 33 15 18 1010.2 - -
17/03:00pm - - - - - ESE 30 35 16 19 1010.1 1010.1 -
17/02:30pm - - - - - ESE 26 32 14 17 1010.2 - -
17/02:00pm - - - - - ESE 28 32 15 17 1010.4 1010.3 -
17/01:30pm - - - - - ESE 28 32 15 17 1010.5 - -
17/01:00pm - - - - - ESE 28 30 15 16 1010.9 1010.7 -
17/12:30pm - - - - - ESE 26 30 14 16 1011.1 - -
17/12:00pm - - - - - ESE 26 30 14 16 1011.6 1011.4 -
17/11:30am - - - - - ESE 26 30 14 16 1012.1 - -
17/11:00am - - - - - SE 28 32 15 17 1012.4 1012.2 -
17/10:30am - - - - - SE 26 32 14 17 1012.6 - -
17/10:00am - - - - - SE 26 32 14 17 1012.9 1012.7 -
17/09:30am - - - - - SE 28 32 15 17 1012.9 - -
17/09:00am - - - - - SE 28 32 15 17 1012.7 1012.7 -
17/08:30am - - - - - SSE 28 32 15 17 1012.5 - -
17/08:00am - - - - - SSE 28 32 15 17 1012.3 1012.4 -
17/07:30am - - - - - SSE 26 30 14 16 1012.3 - -
17/07:00am - - - - - SSE 28 32 15 17 1012.1 1012.0 -
17/06:30am - - - - - SSE 28 32 15 17 1012.0 - -
17/06:00am - - - - - SSE 26 30 14 16 1011.8 1011.7 -
17/05:30am - - - - - SE 22 26 12 14 1011.6 - -
17/05:00am - - - - - SE 24 26 13 14 1011.5 1011.5 -
17/04:30am - - - - - SE 20 22 11 12 1011.6 - -
17/04:00am - - - - - SE 20 22 11 12 1011.7 1011.6 -
17/03:30am - - - - - SE 19 20 10 11 1011.6 - -
17/03:00am - - - - - SE 17 20 9 11 1011.5 1011.4 -
17/02:30am - - - - - SE 19 20 10 11 1011.5 - -
17/02:00am - - - - - SE 15 17 8 9 1011.5 1011.4 -
17/01:30am - - - - - SE 15 17 8 9 1011.4 - -
17/01:00am - - - - - SE 13 17 7 9 1011.5 1011.4 -
17/12:30am - - - - - SE 15 19 8 10 1011.7 - -
17/12:00am - - - - - SE 15 17 8 9 1011.9 1011.7 -
 
Date/Time
WST
Temp
°C
App
Temp
°C
Dew
Point
Rel
Hum
%
Delta-T
°C
Wind Press
QNH
hPa
Press
MSL
hPa
Rain
since 9 am
mm
Dir
 
Spd
km/h
Gust
km/h
Spd
kts
Gust
kts
16/11:30pm - - - - - E 17 19 9 10 1012.1 - -
16/11:00pm - - - - - E 17 22 9 12 1012.1 1012.0 -
16/10:30pm - - - - - E 20 26 11 14 1012.2 - -
16/10:00pm - - - - - E 22 26 12 14 1012.3 1012.2 -
16/09:30pm - - - - - E 24 30 13 16 1012.3 - -
16/09:00pm - - - - - E 20 26 11 14 1012.1 1012.0 -
16/08:30pm - - - - - ESE 24 30 13 16 1011.9 - -
16/08:00pm - - - - - ESE 28 32 15 17 1011.6 1011.6 -
16/07:30pm - - - - - E 28 33 15 18 1011.2 - -
16/07:00pm - - - - - E 30 33 16 18 1010.8 1010.8 -
16/06:30pm - - - - - ESE 30 35 16 19 1010.5 - -
16/06:00pm - - - - - E 30 35 16 19 1010.4 1010.3 -
16/05:30pm - - - - - E 30 35 16 19 1010.2 - -
16/05:00pm - - - - - E 30 35 16 19 1010.0 1009.9 -
16/04:30pm - - - - - ESE 28 33 15 18 1009.9 - -
16/04:00pm - - - - - E 30 35 16 19 1009.7 1009.6 -
16/03:30pm - - - - - E 28 33 15 18 1009.6 - -
16/03:00pm - - - - - E 28 35 15 19 1009.8 1009.7 -
16/02:30pm - - - - - E 30 35 16 19 1009.9 - -
16/02:00pm - - - - - E 32 37 17 20 1010.1 1009.8 -
16/01:30pm - - - - - E 32 37 17 20 1010.3 - -
16/01:00pm - - - - - E 33 41 18 22 1010.5 1010.3 -
16/12:30pm - - - - - E 33 37 18 20 1010.9 - -
16/12:00pm - - - - - E 32 41 17 22 1011.3 1011.1 -
16/11:30am - - - - - E 33 39 18 21 1011.6 - -
16/11:00am - - - - - E 33 41 18 22 1012.0 1011.8 -
16/10:30am - - - - - E 33 39 18 21 1012.3 - -
16/10:00am - - - - - E 33 39 18 21 1012.4 1012.4 -
16/09:30am - - - - - E 33 39 18 21 1012.5 - -
16/09:00am - - - - - ESE 33 39 18 21 1012.4 1012.3 -
16/08:30am - - - - - ESE 32 39 17 21 1012.3 - -
16/08:00am - - - - - ESE 33 39 18 21 1011.9 1011.9 -
16/07:30am - - - - - ESE 33 39 18 21 1011.9 - -
16/07:00am - - - - - ESE 35 39 19 21 1011.7 1011.6 -
16/06:30am - - - - - SE 35 39 19 21 1011.6 - -
16/06:00am - - - - - SE 35 39 19 21 1011.4 1011.4 -
16/05:30am - - - - - SE 33 41 18 22 1011.4 - -
16/05:00am - - - - - SE 32 39 17 21 1011.3 1011.3 -
16/04:30am - - - - - SE 26 32 14 17 1011.4 - -
16/04:00am - - - - - SE 24 28 13 15 1011.5 1011.4 -
16/03:30am - - - - - SE 24 28 13 15 1011.5 - -
16/03:00am - - - - - SE 24 28 13 15 1011.6 1011.4 -
16/02:30am - - - - - ESE 19 22 10 12 1011.9 - -
16/02:00am - - - - - ESE 19 20 10 11 1012.0 1011.9 -
16/01:30am - - - - - SE 19 22 10 12 1012.3 - -
16/01:00am - - - - - SE 19 20 10 11 1012.5 1012.3 -
16/12:30am - - - - - SE 19 20 10 11 1012.6 - -
16/12:00am - - - - - SE 19 20 10 11 1012.8 1012.7 -
 
Date/Time
WST
Temp
°C
App
Temp
°C
Dew
Point
Rel
Hum
%
Delta-T
°C
Wind Press
QNH
hPa
Press
MSL
hPa
Rain
since 9 am
mm
Dir
 
Spd
km/h
Gust
km/h
Spd
kts
Gust
kts
15/11:30pm - - - - - SE 19 20 10 11 1012.8 - -
15/11:00pm - - - - - SE 19 20 10 11 1012.9 1012.8 -
15/10:30pm - - - - - SE 19 24 10 13 1013.0 - -
15/10:00pm - - - - - SE 19 22 10 12 1013.4 1013.2 -
15/09:30pm - - - - - SE 19 22 10 12 1013.4 - -
15/09:00pm - - - - - ESE 19 24 10 13 1013.2 1013.2 -
15/08:30pm - - - - - SE 20 22 11 12 1013.3 - -
15/08:00pm - - - - - SE 22 28 12 15 1013.1 1013.1 -
15/07:30pm - - - - - ESE 24 28 13 15 1012.7 - -
15/07:00pm - - - - - ESE 24 30 13 16 1012.4 1012.4 -
15/06:30pm - - - - - ESE 24 30 13 16 1012.2 - -
15/06:00pm - - - - - ESE 26 30 14 16 1011.9 1011.8 -
15/05:30pm - - - - - ESE 28 33 15 18 1011.6 - -
15/05:00pm - - - - - ESE 30 35 16 19 1011.4 1011.4 -
15/04:30pm - - - - - ESE 30 35 16 19 1011.2 - -

Other Formats:

Comma delimited format used in spreadsheet applications
http://www.bom.gov.au/fwo/IDW60801/IDW60801.94207.axf

JavaScript Object Notation format (JSON) in row-major order
http://www.bom.gov.au/fwo/IDW60801/IDW60801.94207.json